sensor_id;sensor_type;location;lat;lon;timestamp;P1;durP1;ratioP1;P2;durP2;ratioP2
35847;SDS011;22332;51.954;20.118;2022-09-09T00:00:16;9.10;;;5.00;;
35847;SDS011;22332;51.954;20.118;2022-09-09T00:03:44;9.60;;;6.00;;
35847;SDS011;22332;51.954;20.118;2022-09-09T00:07:07;9.60;;;6.10;;
35847;SDS011;22332;51.954;20.118;2022-09-09T00:10:21;8.40;;;5.90;;
35847;SDS011;22332;51.954;20.118;2022-09-09T00:13:32;9.70;;;6.10;;
35847;SDS011;22332;51.954;20.118;2022-09-09T00:16:43;11.40;;;6.00;;
35847;SDS011;22332;51.954;20.118;2022-09-09T00:19:54;7.60;;;5.30;;
35847;SDS011;22332;51.954;20.118;2022-09-09T00:23:08;9.20;;;5.70;;
35847;SDS011;22332;51.954;20.118;2022-09-09T00:26:19;8.60;;;5.90;;
35847;SDS011;22332;51.954;20.118;2022-09-09T00:29:35;9.00;;;5.70;;
35847;SDS011;22332;51.954;20.118;2022-09-09T00:32:46;9.60;;;5.60;;
35847;SDS011;22332;51.954;20.118;2022-09-09T00:35:54;8.50;;;6.40;;
35847;SDS011;22332;51.954;20.118;2022-09-09T00:39:02;8.90;;;6.20;;
35847;SDS011;22332;51.954;20.118;2022-09-09T00:42:12;9.80;;;5.60;;
35847;SDS011;22332;51.954;20.118;2022-09-09T00:45:27;7.50;;;5.10;;
35847;SDS011;22332;51.954;20.118;2022-09-09T00:48:49;9.50;;;5.80;;
35847;SDS011;22332;51.954;20.118;2022-09-09T00:52:05;9.50;;;6.20;;
35847;SDS011;22332;51.954;20.118;2022-09-09T00:55:22;10.50;;;6.50;;
35847;SDS011;22332;51.954;20.118;2022-09-09T00:58:36;9.30;;;6.90;;
35847;SDS011;22332;51.954;20.118;2022-09-09T01:01:42;10.10;;;6.30;;
35847;SDS011;22332;51.954;20.118;2022-09-09T01:04:48;8.60;;;6.00;;
35847;SDS011;22332;51.954;20.118;2022-09-09T01:07:53;10.00;;;6.10;;
35847;SDS011;22332;51.954;20.118;2022-09-09T01:11:02;11.90;;;6.80;;
35847;SDS011;22332;51.954;20.118;2022-09-09T01:14:11;8.10;;;5.70;;
35847;SDS011;22332;51.954;20.118;2022-09-09T01:17:25;11.00;;;6.20;;
35847;SDS011;22332;51.954;20.118;2022-09-09T01:20:43;10.00;;;6.50;;
35847;SDS011;22332;51.954;20.118;2022-09-09T01:24:04;12.70;;;6.90;;
35847;SDS011;22332;51.954;20.118;2022-09-09T01:30:38;7.50;;;5.70;;
35847;SDS011;22332;51.954;20.118;2022-09-09T01:33:47;10.20;;;6.80;;
35847;SDS011;22332;51.954;20.118;2022-09-09T01:36:55;10.50;;;6.30;;
35847;SDS011;22332;51.954;20.118;2022-09-09T01:43:10;8.60;;;6.30;;
35847;SDS011;22332;51.954;20.118;2022-09-09T01:46:17;10.20;;;6.70;;
35847;SDS011;22332;51.954;20.118;2022-09-09T01:49:25;10.40;;;7.30;;
35847;SDS011;22332;51.954;20.118;2022-09-09T01:52:31;11.70;;;7.10;;
35847;SDS011;22332;51.954;20.118;2022-09-09T01:55:42;9.50;;;6.30;;
35847;SDS011;22332;51.954;20.118;2022-09-09T01:59:00;10.20;;;6.60;;
35847;SDS011;22332;51.954;20.118;2022-09-09T02:02:16;10.00;;;6.80;;
35847;SDS011;22332;51.954;20.118;2022-09-09T02:05:34;11.40;;;7.20;;
35847;SDS011;22332;51.954;20.118;2022-09-09T02:08:49;10.50;;;7.20;;
35847;SDS011;22332;51.954;20.118;2022-09-09T02:11:58;13.30;;;7.40;;
35847;SDS011;22332;51.954;20.118;2022-09-09T02:15:18;8.80;;;6.50;;
35847;SDS011;22332;51.954;20.118;2022-09-09T02:18:28;11.70;;;6.90;;
35847;SDS011;22332;51.954;20.118;2022-09-09T02:21:38;10.40;;;6.90;;
35847;SDS011;22332;51.954;20.118;2022-09-09T02:24:46;10.50;;;7.00;;
35847;SDS011;22332;51.954;20.118;2022-09-09T02:28:00;10.70;;;7.10;;
35847;SDS011;22332;51.954;20.118;2022-09-09T02:31:09;10.30;;;7.20;;
35847;SDS011;22332;51.954;20.118;2022-09-09T02:34:16;12.10;;;7.30;;
35847;SDS011;22332;51.954;20.118;2022-09-09T02:37:26;12.20;;;7.50;;
35847;SDS011;22332;51.954;20.118;2022-09-09T02:40:38;13.70;;;7.10;;
35847;SDS011;22332;51.954;20.118;2022-09-09T02:43:43;12.10;;;6.30;;
35847;SDS011;22332;51.954;20.118;2022-09-09T02:46:56;10.20;;;6.60;;
35847;SDS011;22332;51.954;20.118;2022-09-09T02:50:13;10.40;;;6.60;;
35847;SDS011;22332;51.954;20.118;2022-09-09T02:53:22;10.70;;;7.10;;
35847;SDS011;22332;51.954;20.118;2022-09-09T02:56:34;10.10;;;7.20;;
35847;SDS011;22332;51.954;20.118;2022-09-09T02:59:44;9.70;;;6.70;;
35847;SDS011;22332;51.954;20.118;2022-09-09T03:02:51;10.20;;;6.00;;
35847;SDS011;22332;51.954;20.118;2022-09-09T03:05:57;11.20;;;7.00;;
35847;SDS011;22332;51.954;20.118;2022-09-09T03:09:03;10.80;;;6.20;;
35847;SDS011;22332;51.954;20.118;2022-09-09T03:12:10;11.90;;;7.80;;
35847;SDS011;22332;51.954;20.118;2022-09-09T03:15:17;10.70;;;7.60;;
35847;SDS011;22332;51.954;20.118;2022-09-09T03:18:25;12.90;;;7.60;;
35847;SDS011;22332;51.954;20.118;2022-09-09T03:21:31;8.90;;;5.90;;
35847;SDS011;22332;51.954;20.118;2022-09-09T03:24:36;12.20;;;7.10;;
35847;SDS011;22332;51.954;20.118;2022-09-09T03:27:41;10.00;;;6.20;;
35847;SDS011;22332;51.954;20.118;2022-09-09T03:30:49;9.80;;;7.10;;
35847;SDS011;22332;51.954;20.118;2022-09-09T03:33:57;8.90;;;6.70;;
35847;SDS011;22332;51.954;20.118;2022-09-09T03:37:04;10.00;;;6.80;;
35847;SDS011;22332;51.954;20.118;2022-09-09T03:40:11;9.40;;;6.80;;
35847;SDS011;22332;51.954;20.118;2022-09-09T03:43:20;11.60;;;5.90;;
35847;SDS011;22332;51.954;20.118;2022-09-09T03:46:27;9.80;;;6.10;;
35847;SDS011;22332;51.954;20.118;2022-09-09T03:49:34;7.30;;;5.90;;
35847;SDS011;22332;51.954;20.118;2022-09-09T03:52:41;9.30;;;6.50;;
35847;SDS011;22332;51.954;20.118;2022-09-09T03:55:53;9.70;;;7.60;;
35847;SDS011;22332;51.954;20.118;2022-09-09T03:59:02;12.50;;;8.20;;
35847;SDS011;22332;51.954;20.118;2022-09-09T04:02:08;14.70;;;8.90;;
35847;SDS011;22332;51.954;20.118;2022-09-09T04:05:14;9.60;;;6.80;;
35847;SDS011;22332;51.954;20.118;2022-09-09T04:08:21;10.50;;;6.90;;
35847;SDS011;22332;51.954;20.118;2022-09-09T04:11:28;11.80;;;6.80;;
35847;SDS011;22332;51.954;20.118;2022-09-09T04:14:34;12.80;;;7.90;;
35847;SDS011;22332;51.954;20.118;2022-09-09T04:17:41;10.80;;;7.10;;
35847;SDS011;22332;51.954;20.118;2022-09-09T04:20:47;10.70;;;7.10;;
35847;SDS011;22332;51.954;20.118;2022-09-09T04:23:56;10.60;;;7.70;;
35847;SDS011;22332;51.954;20.118;2022-09-09T04:27:03;10.30;;;6.60;;
35847;SDS011;22332;51.954;20.118;2022-09-09T04:30:10;9.30;;;6.40;;
35847;SDS011;22332;51.954;20.118;2022-09-09T04:33:17;11.10;;;7.10;;
35847;SDS011;22332;51.954;20.118;2022-09-09T04:36:24;12.20;;;7.00;;
35847;SDS011;22332;51.954;20.118;2022-09-09T04:39:33;10.70;;;7.50;;
35847;SDS011;22332;51.954;20.118;2022-09-09T04:42:39;11.20;;;7.80;;
35847;SDS011;22332;51.954;20.118;2022-09-09T04:45:49;10.90;;;7.20;;
35847;SDS011;22332;51.954;20.118;2022-09-09T04:48:57;10.60;;;6.40;;
35847;SDS011;22332;51.954;20.118;2022-09-09T04:52:05;11.10;;;7.40;;
35847;SDS011;22332;51.954;20.118;2022-09-09T04:55:11;11.50;;;7.40;;
35847;SDS011;22332;51.954;20.118;2022-09-09T04:58:18;10.50;;;7.70;;
35847;SDS011;22332;51.954;20.118;2022-09-09T05:01:26;11.40;;;7.60;;
35847;SDS011;22332;51.954;20.118;2022-09-09T05:04:37;12.30;;;7.50;;
35847;SDS011;22332;51.954;20.118;2022-09-09T05:07:43;11.30;;;7.80;;
35847;SDS011;22332;51.954;20.118;2022-09-09T05:10:50;14.10;;;8.40;;
35847;SDS011;22332;51.954;20.118;2022-09-09T05:13:56;10.40;;;6.80;;
35847;SDS011;22332;51.954;20.118;2022-09-09T05:17:01;11.20;;;7.80;;
35847;SDS011;22332;51.954;20.118;2022-09-09T05:20:09;11.90;;;8.50;;
35847;SDS011;22332;51.954;20.118;2022-09-09T05:23:14;13.80;;;8.90;;
35847;SDS011;22332;51.954;20.118;2022-09-09T05:26:21;14.00;;;8.60;;
35847;SDS011;22332;51.954;20.118;2022-09-09T05:29:28;13.70;;;8.30;;
35847;SDS011;22332;51.954;20.118;2022-09-09T05:32:36;12.40;;;7.50;;
35847;SDS011;22332;51.954;20.118;2022-09-09T05:35:41;16.50;;;9.40;;
35847;SDS011;22332;51.954;20.118;2022-09-09T05:38:47;16.70;;;8.90;;
35847;SDS011;22332;51.954;20.118;2022-09-09T05:41:53;14.10;;;8.50;;
35847;SDS011;22332;51.954;20.118;2022-09-09T05:45:00;15.10;;;9.40;;
35847;SDS011;22332;51.954;20.118;2022-09-09T05:48:05;16.70;;;10.50;;
35847;SDS011;22332;51.954;20.118;2022-09-09T05:51:11;16.20;;;9.20;;
35847;SDS011;22332;51.954;20.118;2022-09-09T05:54:20;13.50;;;8.50;;
35847;SDS011;22332;51.954;20.118;2022-09-09T05:57:28;14.40;;;8.60;;
35847;SDS011;22332;51.954;20.118;2022-09-09T06:00:33;15.20;;;9.20;;
35847;SDS011;22332;51.954;20.118;2022-09-09T06:03:41;16.70;;;9.40;;
35847;SDS011;22332;51.954;20.118;2022-09-09T06:06:48;15.20;;;9.80;;
35847;SDS011;22332;51.954;20.118;2022-09-09T06:09:54;16.50;;;10.70;;
35847;SDS011;22332;51.954;20.118;2022-09-09T06:13:01;15.80;;;9.90;;
35847;SDS011;22332;51.954;20.118;2022-09-09T06:16:07;16.20;;;9.10;;
35847;SDS011;22332;51.954;20.118;2022-09-09T06:19:15;14.70;;;9.80;;
35847;SDS011;22332;51.954;20.118;2022-09-09T06:22:23;18.20;;;10.40;;
35847;SDS011;22332;51.954;20.118;2022-09-09T06:25:29;16.70;;;9.90;;
35847;SDS011;22332;51.954;20.118;2022-09-09T06:28:37;16.20;;;10.30;;
35847;SDS011;22332;51.954;20.118;2022-09-09T06:31:45;16.90;;;10.90;;
35847;SDS011;22332;51.954;20.118;2022-09-09T06:34:55;19.60;;;10.10;;
35847;SDS011;22332;51.954;20.118;2022-09-09T06:38:01;18.70;;;10.80;;
35847;SDS011;22332;51.954;20.118;2022-09-09T06:41:08;16.50;;;10.10;;
35847;SDS011;22332;51.954;20.118;2022-09-09T06:44:16;15.50;;;10.70;;
35847;SDS011;22332;51.954;20.118;2022-09-09T06:47:21;17.10;;;10.50;;
35847;SDS011;22332;51.954;20.118;2022-09-09T06:50:27;16.50;;;11.00;;
35847;SDS011;22332;51.954;20.118;2022-09-09T06:53:33;20.40;;;12.00;;
35847;SDS011;22332;51.954;20.118;2022-09-09T06:56:41;19.50;;;10.80;;
35847;SDS011;22332;51.954;20.118;2022-09-09T06:59:53;20.10;;;10.30;;
35847;SDS011;22332;51.954;20.118;2022-09-09T07:02:59;22.40;;;12.10;;
35847;SDS011;22332;51.954;20.118;2022-09-09T07:06:05;23.10;;;13.10;;
35847;SDS011;22332;51.954;20.118;2022-09-09T07:09:15;24.70;;;13.40;;
35847;SDS011;22332;51.954;20.118;2022-09-09T07:12:22;21.50;;;13.20;;
35847;SDS011;22332;51.954;20.118;2022-09-09T07:15:32;22.10;;;12.80;;
35847;SDS011;22332;51.954;20.118;2022-09-09T07:18:37;22.00;;;12.30;;
35847;SDS011;22332;51.954;20.118;2022-09-09T07:21:44;23.80;;;12.70;;
35847;SDS011;22332;51.954;20.118;2022-09-09T07:24:52;21.60;;;12.90;;
35847;SDS011;22332;51.954;20.118;2022-09-09T07:27:57;24.40;;;12.50;;
35847;SDS011;22332;51.954;20.118;2022-09-09T07:31:03;22.10;;;13.60;;
35847;SDS011;22332;51.954;20.118;2022-09-09T07:34:10;22.50;;;12.40;;
35847;SDS011;22332;51.954;20.118;2022-09-09T07:37:16;23.40;;;13.70;;
35847;SDS011;22332;51.954;20.118;2022-09-09T07:40:23;23.70;;;12.60;;
35847;SDS011;22332;51.954;20.118;2022-09-09T07:43:29;23.00;;;13.80;;
35847;SDS011;22332;51.954;20.118;2022-09-09T07:46:36;23.10;;;14.00;;
35847;SDS011;22332;51.954;20.118;2022-09-09T07:49:44;27.60;;;15.00;;
35847;SDS011;22332;51.954;20.118;2022-09-09T07:52:50;24.10;;;14.30;;
35847;SDS011;22332;51.954;20.118;2022-09-09T07:55:56;26.90;;;14.40;;
35847;SDS011;22332;51.954;20.118;2022-09-09T07:59:08;25.40;;;13.30;;
35847;SDS011;22332;51.954;20.118;2022-09-09T08:02:15;26.80;;;14.90;;
35847;SDS011;22332;51.954;20.118;2022-09-09T08:05:21;23.70;;;13.70;;
35847;SDS011;22332;51.954;20.118;2022-09-09T08:08:27;23.50;;;13.70;;
35847;SDS011;22332;51.954;20.118;2022-09-09T08:11:33;24.70;;;14.20;;
35847;SDS011;22332;51.954;20.118;2022-09-09T08:14:40;25.40;;;14.70;;
35847;SDS011;22332;51.954;20.118;2022-09-09T08:17:45;25.30;;;15.00;;
35847;SDS011;22332;51.954;20.118;2022-09-09T08:20:52;24.20;;;14.60;;
35847;SDS011;22332;51.954;20.118;2022-09-09T08:23:59;24.00;;;13.50;;
35847;SDS011;22332;51.954;20.118;2022-09-09T08:27:05;24.90;;;13.70;;
35847;SDS011;22332;51.954;20.118;2022-09-09T08:30:13;25.60;;;15.10;;
35847;SDS011;22332;51.954;20.118;2022-09-09T08:33:19;25.10;;;15.00;;
35847;SDS011;22332;51.954;20.118;2022-09-09T08:36:25;23.70;;;15.10;;
35847;SDS011;22332;51.954;20.118;2022-09-09T08:39:33;21.40;;;13.90;;
35847;SDS011;22332;51.954;20.118;2022-09-09T08:42:39;21.50;;;14.00;;
35847;SDS011;22332;51.954;20.118;2022-09-09T08:45:50;23.10;;;14.80;;
35847;SDS011;22332;51.954;20.118;2022-09-09T08:49:05;22.40;;;15.10;;
35847;SDS011;22332;51.954;20.118;2022-09-09T08:52:27;21.80;;;14.50;;
35847;SDS011;22332;51.954;20.118;2022-09-09T08:55:39;22.50;;;13.80;;
35847;SDS011;22332;51.954;20.118;2022-09-09T08:58:49;23.00;;;13.20;;
35847;SDS011;22332;51.954;20.118;2022-09-09T09:02:14;21.10;;;14.90;;
35847;SDS011;22332;51.954;20.118;2022-09-09T09:05:27;21.00;;;14.50;;
35847;SDS011;22332;51.954;20.118;2022-09-09T09:08:39;21.20;;;14.70;;
35847;SDS011;22332;51.954;20.118;2022-09-09T09:11:53;22.20;;;15.20;;
35847;SDS011;22332;51.954;20.118;2022-09-09T09:15:07;22.00;;;14.90;;
35847;SDS011;22332;51.954;20.118;2022-09-09T09:18:20;21.50;;;13.40;;
35847;SDS011;22332;51.954;20.118;2022-09-09T09:21:28;21.10;;;15.00;;
35847;SDS011;22332;51.954;20.118;2022-09-09T09:24:41;22.00;;;15.20;;
35847;SDS011;22332;51.954;20.118;2022-09-09T09:27:57;22.50;;;14.90;;
35847;SDS011;22332;51.954;20.118;2022-09-09T09:31:05;20.90;;;14.80;;
35847;SDS011;22332;51.954;20.118;2022-09-09T09:34:14;18.90;;;14.80;;
35847;SDS011;22332;51.954;20.118;2022-09-09T09:37:23;19.80;;;14.10;;
35847;SDS011;22332;51.954;20.118;2022-09-09T09:40:33;22.50;;;15.20;;
35847;SDS011;22332;51.954;20.118;2022-09-09T09:43:39;22.30;;;14.70;;
35847;SDS011;22332;51.954;20.118;2022-09-09T09:46:49;17.40;;;12.40;;
35847;SDS011;22332;51.954;20.118;2022-09-09T09:49:55;18.40;;;12.90;;
35847;SDS011;22332;51.954;20.118;2022-09-09T09:53:03;16.70;;;12.30;;
35847;SDS011;22332;51.954;20.118;2022-09-09T09:56:13;15.60;;;12.00;;
35847;SDS011;22332;51.954;20.118;2022-09-09T09:59:24;18.40;;;13.40;;
35847;SDS011;22332;51.954;20.118;2022-09-09T10:02:40;19.90;;;14.00;;
35847;SDS011;22332;51.954;20.118;2022-09-09T10:05:51;21.00;;;14.30;;
35847;SDS011;22332;51.954;20.118;2022-09-09T10:08:58;16.50;;;11.90;;
35847;SDS011;22332;51.954;20.118;2022-09-09T10:12:06;19.00;;;12.40;;
35847;SDS011;22332;51.954;20.118;2022-09-09T10:15:24;20.10;;;13.40;;
35847;SDS011;22332;51.954;20.118;2022-09-09T10:18:44;19.10;;;13.20;;
35847;SDS011;22332;51.954;20.118;2022-09-09T10:22:04;17.70;;;13.90;;
35847;SDS011;22332;51.954;20.118;2022-09-09T10:25:33;18.40;;;13.40;;
35847;SDS011;22332;51.954;20.118;2022-09-09T10:32:30;16.70;;;12.00;;
35847;SDS011;22332;51.954;20.118;2022-09-09T10:35:42;17.80;;;12.30;;
35847;SDS011;22332;51.954;20.118;2022-09-09T10:38:57;15.60;;;12.10;;
35847;SDS011;22332;51.954;20.118;2022-09-09T10:42:08;15.70;;;11.00;;
35847;SDS011;22332;51.954;20.118;2022-09-09T10:45:17;17.50;;;12.60;;
35847;SDS011;22332;51.954;20.118;2022-09-09T10:48:30;17.70;;;12.80;;
35847;SDS011;22332;51.954;20.118;2022-09-09T10:51:45;16.40;;;11.60;;
35847;SDS011;22332;51.954;20.118;2022-09-09T10:55:02;15.90;;;12.10;;
35847;SDS011;22332;51.954;20.118;2022-09-09T10:58:17;14.70;;;11.40;;
35847;SDS011;22332;51.954;20.118;2022-09-09T11:01:28;15.60;;;11.70;;
35847;SDS011;22332;51.954;20.118;2022-09-09T11:04:40;16.10;;;12.10;;
35847;SDS011;22332;51.954;20.118;2022-09-09T11:07:50;14.70;;;12.20;;
35847;SDS011;22332;51.954;20.118;2022-09-09T11:11:02;20.30;;;14.40;;
35847;SDS011;22332;51.954;20.118;2022-09-09T11:14:17;17.40;;;13.40;;
35847;SDS011;22332;51.954;20.118;2022-09-09T11:17:30;14.80;;;10.90;;
35847;SDS011;22332;51.954;20.118;2022-09-09T11:20:40;14.60;;;10.80;;
35847;SDS011;22332;51.954;20.118;2022-09-09T11:23:47;13.90;;;10.40;;
35847;SDS011;22332;51.954;20.118;2022-09-09T11:26:59;13.50;;;10.10;;
35847;SDS011;22332;51.954;20.118;2022-09-09T11:33:28;16.50;;;11.60;;
35847;SDS011;22332;51.954;20.118;2022-09-09T11:36:59;14.70;;;10.70;;
35847;SDS011;22332;51.954;20.118;2022-09-09T11:40:20;14.10;;;10.60;;
35847;SDS011;22332;51.954;20.118;2022-09-09T11:43:29;12.50;;;10.60;;
35847;SDS011;22332;51.954;20.118;2022-09-09T11:46:37;13.10;;;10.20;;
35847;SDS011;22332;51.954;20.118;2022-09-09T11:49:44;13.00;;;10.20;;
35847;SDS011;22332;51.954;20.118;2022-09-09T11:52:51;13.00;;;9.70;;
35847;SDS011;22332;51.954;20.118;2022-09-09T11:56:28;13.80;;;10.90;;
35847;SDS011;22332;51.954;20.118;2022-09-09T11:59:35;12.30;;;9.70;;
35847;SDS011;22332;51.954;20.118;2022-09-09T12:02:47;12.20;;;9.90;;
35847;SDS011;22332;51.954;20.118;2022-09-09T12:05:53;12.40;;;9.50;;
35847;SDS011;22332;51.954;20.118;2022-09-09T12:09:05;11.20;;;9.20;;
35847;SDS011;22332;51.954;20.118;2022-09-09T12:12:24;12.10;;;9.20;;
35847;SDS011;22332;51.954;20.118;2022-09-09T12:15:31;12.10;;;9.60;;
35847;SDS011;22332;51.954;20.118;2022-09-09T12:18:37;11.20;;;9.70;;
35847;SDS011;22332;51.954;20.118;2022-09-09T12:21:46;10.40;;;8.40;;
35847;SDS011;22332;51.954;20.118;2022-09-09T12:24:58;10.70;;;9.10;;
35847;SDS011;22332;51.954;20.118;2022-09-09T12:28:14;11.40;;;8.70;;
35847;SDS011;22332;51.954;20.118;2022-09-09T12:31:24;9.30;;;8.30;;
35847;SDS011;22332;51.954;20.118;2022-09-09T12:34:40;8.70;;;7.40;;
35847;SDS011;22332;51.954;20.118;2022-09-09T12:37:48;9.90;;;7.90;;
35847;SDS011;22332;51.954;20.118;2022-09-09T12:40:59;9.30;;;7.80;;
35847;SDS011;22332;51.954;20.118;2022-09-09T12:44:05;9.60;;;7.80;;
35847;SDS011;22332;51.954;20.118;2022-09-09T12:47:13;8.50;;;7.30;;
35847;SDS011;22332;51.954;20.118;2022-09-09T12:50:20;9.60;;;7.80;;
35847;SDS011;22332;51.954;20.118;2022-09-09T12:53:30;9.10;;;8.00;;
35847;SDS011;22332;51.954;20.118;2022-09-09T12:56:38;9.10;;;7.70;;
35847;SDS011;22332;51.954;20.118;2022-09-09T12:59:49;10.00;;;7.60;;
35847;SDS011;22332;51.954;20.118;2022-09-09T13:02:56;9.50;;;7.30;;
35847;SDS011;22332;51.954;20.118;2022-09-09T13:06:11;10.90;;;7.80;;
35847;SDS011;22332;51.954;20.118;2022-09-09T13:09:25;9.70;;;7.60;;
35847;SDS011;22332;51.954;20.118;2022-09-09T13:12:30;10.10;;;7.60;;
35847;SDS011;22332;51.954;20.118;2022-09-09T13:15:36;9.00;;;8.00;;
35847;SDS011;22332;51.954;20.118;2022-09-09T13:18:41;9.20;;;7.40;;
35847;SDS011;22332;51.954;20.118;2022-09-09T13:21:47;9.80;;;7.50;;
35847;SDS011;22332;51.954;20.118;2022-09-09T13:25:00;8.00;;;6.90;;
35847;SDS011;22332;51.954;20.118;2022-09-09T13:28:20;8.40;;;7.10;;
35847;SDS011;22332;51.954;20.118;2022-09-09T13:31:29;7.60;;;6.80;;
35847;SDS011;22332;51.954;20.118;2022-09-09T13:34:36;7.80;;;6.80;;
35847;SDS011;22332;51.954;20.118;2022-09-09T13:37:42;9.20;;;6.80;;
35847;SDS011;22332;51.954;20.118;2022-09-09T13:40:55;9.30;;;7.10;;
35847;SDS011;22332;51.954;20.118;2022-09-09T13:44:04;8.50;;;6.80;;
35847;SDS011;22332;51.954;20.118;2022-09-09T13:47:17;9.10;;;7.20;;
35847;SDS011;22332;51.954;20.118;2022-09-09T13:50:26;8.00;;;6.70;;
35847;SDS011;22332;51.954;20.118;2022-09-09T13:53:32;7.80;;;6.40;;
35847;SDS011;22332;51.954;20.118;2022-09-09T13:56:38;7.90;;;7.10;;
35847;SDS011;22332;51.954;20.118;2022-09-09T13:59:45;7.50;;;6.20;;
35847;SDS011;22332;51.954;20.118;2022-09-09T14:02:51;7.20;;;6.00;;
35847;SDS011;22332;51.954;20.118;2022-09-09T14:05:58;8.30;;;6.00;;
35847;SDS011;22332;51.954;20.118;2022-09-09T14:09:04;7.70;;;6.90;;
35847;SDS011;22332;51.954;20.118;2022-09-09T14:12:10;7.50;;;6.70;;
35847;SDS011;22332;51.954;20.118;2022-09-09T14:15:16;7.30;;;6.00;;
35847;SDS011;22332;51.954;20.118;2022-09-09T14:18:22;6.00;;;5.40;;
35847;SDS011;22332;51.954;20.118;2022-09-09T14:21:28;6.90;;;5.20;;
35847;SDS011;22332;51.954;20.118;2022-09-09T14:24:34;6.50;;;5.80;;
35847;SDS011;22332;51.954;20.118;2022-09-09T14:27:39;8.60;;;6.00;;
35847;SDS011;22332;51.954;20.118;2022-09-09T14:30:44;6.10;;;5.50;;
35847;SDS011;22332;51.954;20.118;2022-09-09T14:33:50;7.30;;;6.00;;
35847;SDS011;22332;51.954;20.118;2022-09-09T14:36:56;7.20;;;6.40;;
35847;SDS011;22332;51.954;20.118;2022-09-09T14:40:01;6.80;;;6.00;;
35847;SDS011;22332;51.954;20.118;2022-09-09T14:43:10;10.00;;;6.20;;
35847;SDS011;22332;51.954;20.118;2022-09-09T14:46:17;7.60;;;6.60;;
35847;SDS011;22332;51.954;20.118;2022-09-09T14:49:23;6.90;;;5.80;;
35847;SDS011;22332;51.954;20.118;2022-09-09T14:52:30;7.70;;;6.20;;
35847;SDS011;22332;51.954;20.118;2022-09-09T14:55:36;6.90;;;6.10;;
35847;SDS011;22332;51.954;20.118;2022-09-09T14:58:42;7.20;;;6.40;;
35847;SDS011;22332;51.954;20.118;2022-09-09T15:01:48;7.40;;;6.20;;
35847;SDS011;22332;51.954;20.118;2022-09-09T15:04:53;15.60;;;13.80;;
35847;SDS011;22332;51.954;20.118;2022-09-09T15:07:59;11.20;;;9.90;;
35847;SDS011;22332;51.954;20.118;2022-09-09T15:11:05;14.00;;;12.50;;
35847;SDS011;22332;51.954;20.118;2022-09-09T15:14:11;11.20;;;9.40;;
35847;SDS011;22332;51.954;20.118;2022-09-09T15:17:17;8.10;;;7.10;;
35847;SDS011;22332;51.954;20.118;2022-09-09T15:20:23;7.40;;;6.70;;
35847;SDS011;22332;51.954;20.118;2022-09-09T15:23:28;11.60;;;9.70;;
35847;SDS011;22332;51.954;20.118;2022-09-09T15:26:36;24.80;;;21.70;;
35847;SDS011;22332;51.954;20.118;2022-09-09T15:29:42;15.30;;;11.90;;
35847;SDS011;22332;51.954;20.118;2022-09-09T15:32:47;14.70;;;13.20;;
35847;SDS011;22332;51.954;20.118;2022-09-09T15:35:55;13.40;;;11.60;;
35847;SDS011;22332;51.954;20.118;2022-09-09T15:39:01;10.50;;;8.70;;
35847;SDS011;22332;51.954;20.118;2022-09-09T15:42:07;7.40;;;6.60;;
35847;SDS011;22332;51.954;20.118;2022-09-09T15:45:13;9.50;;;7.60;;
35847;SDS011;22332;51.954;20.118;2022-09-09T15:48:19;11.10;;;8.40;;
35847;SDS011;22332;51.954;20.118;2022-09-09T15:51:33;7.30;;;5.80;;
35847;SDS011;22332;51.954;20.118;2022-09-09T15:54:39;12.90;;;8.80;;
35847;SDS011;22332;51.954;20.118;2022-09-09T15:57:46;12.40;;;8.70;;
35847;SDS011;22332;51.954;20.118;2022-09-09T16:00:51;16.10;;;9.40;;
35847;SDS011;22332;51.954;20.118;2022-09-09T16:03:57;13.30;;;9.00;;
35847;SDS011;22332;51.954;20.118;2022-09-09T16:07:04;14.10;;;9.20;;
35847;SDS011;22332;51.954;20.118;2022-09-09T16:10:10;8.80;;;6.90;;
35847;SDS011;22332;51.954;20.118;2022-09-09T16:13:16;8.80;;;6.10;;
35847;SDS011;22332;51.954;20.118;2022-09-09T16:16:22;9.50;;;6.90;;
35847;SDS011;22332;51.954;20.118;2022-09-09T16:19:29;11.30;;;7.40;;
35847;SDS011;22332;51.954;20.118;2022-09-09T16:22:35;15.70;;;8.80;;
35847;SDS011;22332;51.954;20.118;2022-09-09T16:25:40;14.50;;;9.00;;
35847;SDS011;22332;51.954;20.118;2022-09-09T16:28:47;21.30;;;12.30;;
35847;SDS011;22332;51.954;20.118;2022-09-09T16:31:53;25.60;;;13.50;;
35847;SDS011;22332;51.954;20.118;2022-09-09T16:34:58;16.60;;;11.20;;
35847;SDS011;22332;51.954;20.118;2022-09-09T16:38:04;15.00;;;10.20;;
35847;SDS011;22332;51.954;20.118;2022-09-09T16:41:11;12.00;;;8.30;;
35847;SDS011;22332;51.954;20.118;2022-09-09T16:44:17;13.80;;;9.90;;
35847;SDS011;22332;51.954;20.118;2022-09-09T16:47:23;15.20;;;10.20;;
35847;SDS011;22332;51.954;20.118;2022-09-09T16:50:28;12.90;;;10.20;;
35847;SDS011;22332;51.954;20.118;2022-09-09T16:53:35;13.70;;;9.10;;
35847;SDS011;22332;51.954;20.118;2022-09-09T16:56:41;11.80;;;9.00;;
35847;SDS011;22332;51.954;20.118;2022-09-09T16:59:48;11.20;;;8.20;;
35847;SDS011;22332;51.954;20.118;2022-09-09T17:02:56;16.80;;;12.80;;
35847;SDS011;22332;51.954;20.118;2022-09-09T17:06:02;16.10;;;12.00;;
35847;SDS011;22332;51.954;20.118;2022-09-09T17:14:21;13.00;;;10.40;;
35847;SDS011;22332;51.954;20.118;2022-09-09T17:17:27;11.70;;;9.60;;
35847;SDS011;22332;51.954;20.118;2022-09-09T17:20:34;12.60;;;9.40;;
35847;SDS011;22332;51.954;20.118;2022-09-09T17:23:40;13.10;;;9.50;;
35847;SDS011;22332;51.954;20.118;2022-09-09T17:26:47;14.20;;;10.00;;
35847;SDS011;22332;51.954;20.118;2022-09-09T17:29:52;13.90;;;10.30;;
35847;SDS011;22332;51.954;20.118;2022-09-09T17:32:57;17.70;;;12.80;;
35847;SDS011;22332;51.954;20.118;2022-09-09T17:36:06;15.40;;;11.60;;
35847;SDS011;22332;51.954;20.118;2022-09-09T17:39:13;12.60;;;10.10;;
35847;SDS011;22332;51.954;20.118;2022-09-09T17:42:19;11.80;;;9.40;;
35847;SDS011;22332;51.954;20.118;2022-09-09T17:45:24;15.10;;;11.70;;
35847;SDS011;22332;51.954;20.118;2022-09-09T17:48:32;16.40;;;12.20;;
35847;SDS011;22332;51.954;20.118;2022-09-09T17:51:39;16.20;;;12.90;;
35847;SDS011;22332;51.954;20.118;2022-09-09T17:54:46;19.70;;;13.50;;
35847;SDS011;22332;51.954;20.118;2022-09-09T17:57:52;17.90;;;12.30;;
35847;SDS011;22332;51.954;20.118;2022-09-09T18:00:57;13.50;;;10.60;;
35847;SDS011;22332;51.954;20.118;2022-09-09T18:04:08;15.60;;;12.40;;
35847;SDS011;22332;51.954;20.118;2022-09-09T18:07:15;18.30;;;12.90;;
35847;SDS011;22332;51.954;20.118;2022-09-09T18:10:23;19.20;;;14.40;;
35847;SDS011;22332;51.954;20.118;2022-09-09T18:13:32;19.00;;;13.80;;
35847;SDS011;22332;51.954;20.118;2022-09-09T18:16:38;19.60;;;14.30;;
35847;SDS011;22332;51.954;20.118;2022-09-09T18:19:44;20.60;;;14.20;;
35847;SDS011;22332;51.954;20.118;2022-09-09T18:22:49;23.80;;;15.80;;
35847;SDS011;22332;51.954;20.118;2022-09-09T18:25:55;19.80;;;14.30;;
35847;SDS011;22332;51.954;20.118;2022-09-09T18:29:01;22.80;;;16.20;;
35847;SDS011;22332;51.954;20.118;2022-09-09T18:32:09;20.90;;;16.20;;
35847;SDS011;22332;51.954;20.118;2022-09-09T18:35:16;21.10;;;14.90;;
35847;SDS011;22332;51.954;20.118;2022-09-09T18:38:22;22.70;;;14.30;;